This is the latest recevied weather packets stored in our database for station/object PY2RMF-10. If no packets are shown the sender has not sent any weather packets the latest 10 day(s).
| Time | Temp. | Humidity | Pressure | Rain* | Wind** | Luminosity | Snow |
|---|---|---|---|---|---|---|---|
| 1777956511 | 22.22° C | 99% | 1007 hPa | - | - | - | - |
| 1777954711 | 22.22° C | 99% | 1008 hPa | - | - | - | - |
| 1777952911 | 22.22° C | 99% | 1008 hPa | - | - | - | - |
| 1777951111 | 22.22° C | 100% | 1008 hPa | - | - | - | - |
| 1777949311 | 22.22° C | 100% | 1008 hPa | - | - | - | - |
| 1777947512 | 22.78° C | 100% | 1008 hPa | - | - | - | - |
| 1777945711 | 22.78° C | 100% | 1008 hPa | - | - | - | - |
| 1777943911 | 23.33° C | 98% | 1008 hPa | - | - | - | - |
| 1777942111 | 23.33° C | 100% | 1008 hPa | - | - | - | - |
| 1777940311 | 23.33° C | 100% | 1007 hPa | - | - | - | - |
| 1777938512 | 23.33° C | 100% | 1007 hPa | - | - | - | - |
| 1777936723 | 22.78° C | 100% | 1007 hPa | - | - | - | - |
| 1777936712 | 23.33° C | 100% | 1007 hPa | - | - | - | - |
| 1777934911 | 22.78° C | 100% | 1007 hPa | - | - | - | - |
| 1777933111 | 22.78° C | 100% | 1006 hPa | - | - | - | - |
| 1777931311 | 23.33° C | 100% | 1006 hPa | - | - | - | - |
| 1777929512 | 24.44° C | 85% | 1006 hPa | - | - | - | - |
| 1777927711 | 26.11° C | 64% | 1005 hPa | - | - | - | - |
| 1777925912 | 27.78° C | 59% | 1005 hPa | - | - | - | - |
| 1777924111 | 28.89° C | 56% | 1005 hPa | - | - | - | - |
| 1777922311 | 29.44° C | 50% | 1005 hPa | - | - | - | - |
| 1777920511 | 30.56° C | 47% | 1005 hPa | - | - | - | - |
| 1777918711 | 30.56° C | 45% | 1005 hPa | - | - | - | - |
| 1777916911 | 30.56° C | 45% | 1005 hPa | - | - | - | - |
| 1777915112 | 32.22° C | 39% | 1005 hPa | - | - | - | - |
* Rain since midnight (hover to see other rain measurements)
** Current wind speed in m/s (hover to see current wind gust speed)